Time;durP1;ratioP1;P1;durP2;ratioP2;P2;SDS_P1;SDS_P2;PMS_P1;PMS_P2;Temp;Humidity;BMP_temperature;BMP_pressure;BME280_temperature;BME280_humidity;BME280_pressure;Samples;Min_cycle;Max_cycle;Signal;HPM_P1;HPM_P2
2023/02/06 00:02:15;;;;;;;6.80;6.10;;;;;;;;;;5134110;27;20651;-58
2023/02/06 00:04:41;;;;;;;7.13;5.88;;;;;;;;;;5133925;27;20245;-58
2023/02/06 00:07:08;;;;;;;8.80;6.78;;;;;;;;;;5133787;28;20215;-58
2023/02/06 00:09:35;;;;;;;8.02;6.70;;;;;;;;;;5133833;28;20207;-58
2023/02/06 00:12:02;;;;;;;14.80;8.68;;;;;;;;;;5133686;28;20184;-58
2023/02/06 00:14:29;;;;;;;32.40;16.92;;;;;;;;;;5133799;28;20191;-58
2023/02/06 00:16:59;;;;;;;21.30;13.27;;;;;;;;;;5133843;28;20195;-58
2023/02/06 00:19:26;;;;;;;27.50;18.15;;;;;;;;;;5133737;28;20275;-58
2023/02/06 00:21:53;;;;;;;24.38;15.98;;;;;;;;;;5133752;28;20288;-57
2023/02/06 00:24:20;;;;;;;30.65;21.58;;;;;;;;;;5133633;28;20233;-59
2023/02/06 00:26:47;;;;;;;27.45;18.60;;;;;;;;;;5133539;28;20674;-58
2023/02/06 00:29:14;;;;;;;23.65;19.05;;;;;;;;;;5133723;28;20195;-58
2023/02/06 00:31:41;;;;;;;28.13;19.83;;;;;;;;;;5133684;28;20199;-58
2023/02/06 00:34:09;;;;;;;29.58;22.58;;;;;;;;;;5133448;28;20223;-58
2023/02/06 00:36:36;;;;;;;25.38;21.33;;;;;;;;;;5133186;28;20194;-57
2023/02/06 00:39:03;;;;;;;29.13;21.52;;;;;;;;;;5132996;28;20192;-57
2023/02/06 00:41:30;;;;;;;20.75;14.10;;;;;;;;;;5133191;28;20274;-56
2023/02/06 00:43:57;;;;;;;25.42;18.42;;;;;;;;;;5133037;28;20279;-56
2023/02/06 00:46:24;;;;;;;24.35;18.00;;;;;;;;;;5132676;28;20219;-58
2023/02/06 00:48:51;;;;;;;17.40;15.23;;;;;;;;;;5133023;28;20550;-58
2023/02/06 00:51:19;;;;;;;12.18;10.23;;;;;;;;;;5132883;28;20282;-57
2023/02/06 00:53:46;;;;;;;13.65;10.68;;;;;;;;;;5133207;28;20199;-57
2023/02/06 00:56:13;;;;;;;8.77;7.75;;;;;;;;;;5133021;28;20287;-53
2023/02/06 00:58:40;;;;;;;8.85;6.00;;;;;;;;;;5132903;28;20190;-55
2023/02/06 01:01:07;;;;;;;8.65;7.80;;;;;;;;;;5133084;28;20278;-57
2023/02/06 01:03:34;;;;;;;8.57;7.20;;;;;;;;;;5135357;27;20183;-55
2023/02/06 01:06:01;;;;;;;9.52;6.78;;;;;;;;;;5136548;27;20302;-56
2023/02/06 01:08:29;;;;;;;9.93;7.03;;;;;;;;;;5136888;27;20187;-57
2023/02/06 01:10:56;;;;;;;8.43;6.43;;;;;;;;;;5136830;27;20188;-58
2023/02/06 01:13:23;;;;;;;11.25;6.68;;;;;;;;;;5136455;27;20662;-57
2023/02/06 01:15:50;;;;;;;6.15;5.55;;;;;;;;;;5136618;27;20194;-58
2023/02/06 01:18:17;;;;;;;8.65;6.38;;;;;;;;;;5136454;27;20190;-57
2023/02/06 01:20:44;;;;;;;7.28;5.53;;;;;;;;;;5136393;27;20211;-55
2023/02/06 01:23:11;;;;;;;9.93;6.53;;;;;;;;;;5136682;27;20184;-57
2023/02/06 01:25:39;;;;;;;9.23;5.93;;;;;;;;;;5136478;27;20187;-56
2023/02/06 01:28:06;;;;;;;11.48;6.35;;;;;;;;;;5136416;27;20274;-58
2023/02/06 01:30:33;;;;;;;8.35;5.85;;;;;;;;;;5136347;27;20279;-57
2023/02/06 01:33:00;;;;;;;6.55;5.47;;;;;;;;;;5136185;27;20188;-57
2023/02/06 01:35:28;;;;;;;11.40;5.80;;;;;;;;;;5136425;27;20187;-58
2023/02/06 01:37:55;;;;;;;7.68;6.00;;;;;;;;;;5136353;27;20191;-57
2023/02/06 01:40:22;;;;;;;10.60;6.18;;;;;;;;;;5136034;27;20192;-57
2023/02/06 01:42:50;;;;;;;6.05;5.25;;;;;;;;;;5136105;27;20187;-56
2023/02/06 01:45:38;;;;;;;8.65;5.30;;;;;;;;;;5135828;27;20716;-58
2023/02/06 01:48:08;;;;;;;9.65;5.45;;;;;;;;;;5128071;27;20192;-57
2023/02/06 01:50:36;;;;;;;9.10;6.20;;;;;;;;;;5136155;27;20188;-58
2023/02/06 01:53:05;;;;;;;7.43;6.22;;;;;;;;;;5135969;27;20278;-57
2023/02/06 01:55:32;;;;;;;8.52;6.00;;;;;;;;;;5135793;27;20188;-57
2023/02/06 01:58:01;;;;;;;6.85;5.63;;;;;;;;;;5135891;27;20685;-58
2023/02/06 02:00:28;;;;;;;9.30;4.95;;;;;;;;;;5135712;27;20278;-56
2023/02/06 02:02:55;;;;;;;8.20;6.25;;;;;;;;;;5135862;27;20194;-55
2023/02/06 02:05:22;;;;;;;7.30;5.10;;;;;;;;;;5135764;27;20190;-56
2023/02/06 02:07:51;;;;;;;9.35;5.32;;;;;;;;;;5135662;27;20326;-57
2023/02/06 02:10:18;;;;;;;6.35;5.05;;;;;;;;;;5135575;27;20187;-57
2023/02/06 02:12:45;;;;;;;8.05;5.55;;;;;;;;;;5135313;27;20270;-54
2023/02/06 02:15:13;;;;;;;7.20;5.57;;;;;;;;;;5134944;27;20279;-57
2023/02/06 02:17:46;;;;;;;8.02;5.05;;;;;;;;;;5135619;27;20194;-57
2023/02/06 02:20:37;;;;;;;7.70;5.00;;;;;;;;;;5135410;27;20183;-55
2023/02/06 02:23:08;;;;;;;8.35;5.93;;;;;;;;;;5135305;27;20275;-58
2023/02/06 02:26:09;;;;;;;8.25;5.30;;;;;;;;;;5135507;27;20188;-57
2023/02/06 02:29:05;;;;;;;8.52;5.70;;;;;;;;;;5071752;28;20194;-57
2023/02/06 02:31:50;;;;;;;13.20;6.03;;;;;;;;;;5071896;28;20277;-57
2023/02/06 02:34:33;;;;;;;8.00;5.32;;;;;;;;;;5120118;27;20183;-56
2023/02/06 02:37:03;;;;;;;6.70;5.15;;;;;;;;;;5135133;27;20187;-58
2023/02/06 02:39:33;;;;;;;9.55;4.70;;;;;;;;;;5134917;27;20625;-58
2023/02/06 02:42:05;;;;;;;6.47;4.78;;;;;;;;;;5134824;27;20202;-58
2023/02/06 02:44:34;;;;;;;6.00;4.95;;;;;;;;;;5134773;27;20183;-58
2023/02/06 02:47:04;;;;;;;5.82;4.85;;;;;;;;;;5134856;27;20212;-56
2023/02/06 02:49:33;;;;;;;8.35;5.07;;;;;;;;;;5134791;27;20191;-57
2023/02/06 02:52:01;;;;;;;9.00;5.07;;;;;;;;;;5134752;27;20187;-57
2023/02/06 02:54:28;;;;;;;4.72;3.63;;;;;;;;;;5134630;27;20539;-56
2023/02/06 02:56:58;;;;;;;8.13;5.78;;;;;;;;;;5134701;27;20187;-55
2023/02/06 02:59:28;;;;;;;7.03;5.60;;;;;;;;;;5134784;27;20193;-57
2023/02/06 03:01:58;;;;;;;6.25;5.07;;;;;;;;;;5134759;27;20192;-57
2023/02/06 03:04:27;;;;;;;9.25;5.53;;;;;;;;;;5134380;27;20706;-57
2023/02/06 03:07:00;;;;;;;7.25;5.65;;;;;;;;;;5134252;27;20304;-58
2023/02/06 03:09:33;;;;;;;7.78;5.68;;;;;;;;;;5134630;27;20206;-57
2023/02/06 03:12:07;;;;;;;8.07;5.55;;;;;;;;;;5134247;27;20278;-55
2023/02/06 03:14:36;;;;;;;8.27;5.53;;;;;;;;;;5134354;27;20546;-58
2023/02/06 03:17:05;;;;;;;8.77;5.40;;;;;;;;;;5134247;27;20290;-57
2023/02/06 03:19:33;;;;;;;9.48;4.90;;;;;;;;;;5134140;27;20191;-58
2023/02/06 03:22:02;;;;;;;9.60;5.75;;;;;;;;;;5134279;27;20183;-57
2023/02/06 03:24:32;;;;;;;6.57;5.93;;;;;;;;;;5134173;27;20192;-56
2023/02/06 03:27:00;;;;;;;7.93;5.28;;;;;;;;;;5133141;27;20222;-57
2023/02/06 03:29:28;;;;;;;8.60;5.55;;;;;;;;;;5134113;27;20194;-58
2023/02/06 03:31:57;;;;;;;8.35;5.88;;;;;;;;;;5133870;27;20278;-58
2023/02/06 03:34:26;;;;;;;5.88;4.55;;;;;;;;;;5134074;27;20202;-56
2023/02/06 03:36:54;;;;;;;8.15;5.43;;;;;;;;;;5134009;27;20191;-56
2023/02/06 03:39:22;;;;;;;5.93;5.22;;;;;;;;;;5133929;27;20191;-57
2023/02/06 03:41:50;;;;;;;7.85;6.05;;;;;;;;;;5133865;27;20567;-58
2023/02/06 03:44:19;;;;;;;6.80;5.88;;;;;;;;;;5133841;27;20184;-55
2023/02/06 03:46:46;;;;;;;14.27;6.88;;;;;;;;;;5133661;27;20233;-57
2023/02/06 03:49:15;;;;;;;10.57;5.70;;;;;;;;;;5133785;27;20214;-54
2023/02/06 03:51:44;;;;;;;8.27;6.30;;;;;;;;;;5133811;27;20187;-56
2023/02/06 03:54:12;;;;;;;6.32;5.45;;;;;;;;;;5133724;27;20187;-58
2023/02/06 03:56:43;;;;;;;10.00;5.95;;;;;;;;;;5133635;27;20202;-58
2023/02/06 03:59:11;;;;;;;8.40;6.25;;;;;;;;;;5133525;27;20335;-58
2023/02/06 04:01:41;;;;;;;7.97;6.40;;;;;;;;;;5133803;27;20188;-57
2023/02/06 04:04:08;;;;;;;7.45;5.28;;;;;;;;;;5133834;27;20188;-58
2023/02/06 04:06:35;;;;;;;11.30;6.05;;;;;;;;;;5133524;27;20550;-57
2023/02/06 04:09:02;;;;;;;8.07;6.05;;;;;;;;;;5133460;28;20190;-57
2023/02/06 04:11:28;;;;;;;9.73;6.63;;;;;;;;;;5133477;28;20662;-58
2023/02/06 04:13:57;;;;;;;8.02;6.82;;;;;;;;;;5133572;28;20194;-55
2023/02/06 04:16:24;;;;;;;10.07;6.60;;;;;;;;;;5133605;28;20279;-57
2023/02/06 04:18:51;;;;;;;9.98;6.22;;;;;;;;;;5133484;28;20285;-57
2023/02/06 04:21:18;;;;;;;12.82;7.18;;;;;;;;;;5133433;28;20188;-57
2023/02/06 04:23:45;;;;;;;7.45;6.05;;;;;;;;;;5133328;28;20194;-55
2023/02/06 04:26:11;;;;;;;7.57;5.80;;;;;;;;;;5133250;28;20214;-58
2023/02/06 04:28:38;;;;;;;8.68;6.18;;;;;;;;;;5133307;28;20594;-57
2023/02/06 04:31:07;;;;;;;9.02;6.28;;;;;;;;;;5133388;28;20188;-54
2023/02/06 04:33:34;;;;;;;9.13;6.45;;;;;;;;;;5133407;28;20207;-58
2023/02/06 04:36:00;;;;;;;8.88;6.57;;;;;;;;;;5133282;28;20620;-57
2023/02/06 04:38:27;;;;;;;10.38;7.40;;;;;;;;;;5135681;27;20194;-56
2023/02/06 04:40:54;;;;;;;15.27;12.10;;;;;;;;;;5137387;27;20187;-57
2023/02/06 04:43:21;;;;;;;11.13;8.52;;;;;;;;;;5137295;27;20270;-57
2023/02/06 04:45:48;;;;;;;11.02;7.30;;;;;;;;;;5137053;27;20241;-57
2023/02/06 04:48:16;;;;;;;10.90;6.90;;;;;;;;;;5137167;27;20642;-57
2023/02/06 04:50:43;;;;;;;8.05;6.80;;;;;;;;;;5137093;27;20183;-55
2023/02/06 04:53:11;;;;;;;10.85;7.30;;;;;;;;;;5137044;27;20183;-58
2023/02/06 04:55:38;;;;;;;7.95;6.50;;;;;;;;;;5137194;27;20194;-56
2023/02/06 04:58:05;;;;;;;12.80;6.97;;;;;;;;;;5137174;27;20274;-58
2023/02/06 05:00:32;;;;;;;9.20;6.95;;;;;;;;;;5136787;27;20738;-55
2023/02/06 05:02:59;;;;;;;11.57;7.47;;;;;;;;;;5136857;27;20191;-56
2023/02/06 05:05:27;;;;;;;9.68;7.32;;;;;;;;;;5136749;27;20190;-57
2023/02/06 05:07:54;;;;;;;7.65;6.63;;;;;;;;;;5136587;27;20938;-58
2023/02/06 05:10:21;;;;;;;9.00;6.05;;;;;;;;;;5136894;27;20191;-57
2023/02/06 05:12:49;;;;;;;10.25;6.60;;;;;;;;;;5136843;27;20187;-58
2023/02/06 05:15:17;;;;;;;9.82;7.53;;;;;;;;;;5136731;27;20282;-58
2023/02/06 05:17:43;;;;;;;10.85;7.72;;;;;;;;;;5136525;27;20739;-57
2023/02/06 05:20:11;;;;;;;10.77;7.50;;;;;;;;;;5136421;27;20188;-58
2023/02/06 05:22:39;;;;;;;16.75;7.40;;;;;;;;;;5136787;27;20549;-58
2023/02/06 05:25:06;;;;;;;11.70;7.47;;;;;;;;;;5136694;27;20301;-57
2023/02/06 05:27:33;;;;;;;9.38;7.25;;;;;;;;;;5136486;27;20303;-57
2023/02/06 05:30:00;;;;;;;7.60;6.78;;;;;;;;;;5136638;27;20325;-57
2023/02/06 05:32:27;;;;;;;9.75;7.13;;;;;;;;;;5136399;27;20188;-57
2023/02/06 05:34:54;;;;;;;8.35;7.20;;;;;;;;;;5136078;27;20188;-56
2023/02/06 05:37:21;;;;;;;10.05;7.90;;;;;;;;;;5136299;27;20207;-56
2023/02/06 05:39:49;;;;;;;14.80;8.70;;;;;;;;;;5136172;27;20270;-58
2023/02/06 05:42:16;;;;;;;11.77;7.30;;;;;;;;;;5136098;27;20622;-58
2023/02/06 05:44:43;;;;;;;11.55;8.95;;;;;;;;;;5136112;27;20220;-57
2023/02/06 05:47:10;;;;;;;12.27;7.97;;;;;;;;;;5135813;27;20307;-58
2023/02/06 05:49:37;;;;;;;13.88;9.90;;;;;;;;;;5135110;27;20209;-54
2023/02/06 05:52:04;;;;;;;11.15;9.07;;;;;;;;;;5135949;27;20535;-52
2023/02/06 05:54:31;;;;;;;10.90;8.82;;;;;;;;;;5135773;27;20580;-57
2023/02/06 05:56:59;;;;;;;8.80;7.53;;;;;;;;;;5136169;27;20188;-57
2023/02/06 05:59:26;;;;;;;10.50;8.23;;;;;;;;;;5135551;27;20227;-57
2023/02/06 06:01:53;;;;;;;9.68;8.38;;;;;;;;;;5135515;27;20282;-58
2023/02/06 06:04:20;;;;;;;9.35;8.30;;;;;;;;;;5135759;27;20328;-56
2023/02/06 06:06:47;;;;;;;14.65;7.40;;;;;;;;;;5135585;27;20546;-58
2023/02/06 06:09:14;;;;;;;11.13;8.35;;;;;;;;;;5135324;27;20708;-57
2023/02/06 06:11:41;;;;;;;14.15;7.78;;;;;;;;;;5135589;27;20194;-57
2023/02/06 06:14:11;;;;;;;12.57;8.52;;;;;;;;;;5135458;27;20278;-56
2023/02/06 06:16:39;;;;;;;11.38;8.38;;;;;;;;;;5135281;27;20183;-57
2023/02/06 06:19:06;;;;;;;12.20;8.50;;;;;;;;;;5135514;27;20187;-57
2023/02/06 06:21:33;;;;;;;10.95;8.02;;;;;;;;;;5135262;27;20198;-56
2023/02/06 06:24:00;;;;;;;12.98;8.50;;;;;;;;;;5135193;27;20669;-55
2023/02/06 06:26:27;;;;;;;10.68;8.52;;;;;;;;;;5135253;27;20264;-57
2023/02/06 06:28:54;;;;;;;13.95;9.43;;;;;;;;;;5135008;27;20222;-55
2023/02/06 06:31:23;;;;;;;10.25;8.35;;;;;;;;;;5135040;27;20198;-57
2023/02/06 06:33:49;;;;;;;9.43;8.43;;;;;;;;;;5134792;27;20659;-57
2023/02/06 06:36:16;;;;;;;10.93;9.15;;;;;;;;;;5134949;27;20190;-57
2023/02/06 06:38:43;;;;;;;11.07;8.57;;;;;;;;;;5135019;27;20290;-57
2023/02/06 06:41:10;;;;;;;16.05;8.50;;;;;;;;;;5134940;27;20206;-55
2023/02/06 06:43:38;;;;;;;14.98;8.77;;;;;;;;;;5134812;27;20274;-58
2023/02/06 06:46:05;;;;;;;12.13;9.02;;;;;;;;;;5134573;27;20276;-58
2023/02/06 06:48:35;;;;;;;11.82;8.80;;;;;;;;;;5134868;27;20265;-57
2023/02/06 06:51:02;;;;;;;12.38;10.65;;;;;;;;;;5134665;27;20236;-56
2023/02/06 06:53:29;;;;;;;10.27;8.70;;;;;;;;;;5134613;27;20227;-57
2023/02/06 06:55:56;;;;;;;12.07;9.68;;;;;;;;;;5134345;27;20192;-56
2023/02/06 06:58:23;;;;;;;10.65;8.25;;;;;;;;;;5134564;27;20191;-57
2023/02/06 07:00:50;;;;;;;10.43;8.60;;;;;;;;;;5134371;27;20191;-58
2023/02/06 07:03:17;;;;;;;13.32;8.88;;;;;;;;;;5134634;27;20241;-56
2023/02/06 07:05:46;;;;;;;12.50;9.23;;;;;;;;;;5134399;27;20219;-56
2023/02/06 07:08:13;;;;;;;12.57;9.20;;;;;;;;;;5134230;27;20250;-57
2023/02/06 07:10:40;;;;;;;14.43;10.10;;;;;;;;;;5134252;27;20241;-55
2023/02/06 07:13:07;;;;;;;11.50;9.52;;;;;;;;;;5134526;27;20216;-57
2023/02/06 07:15:34;;;;;;;11.93;10.20;;;;;;;;;;5134312;27;20548;-57
2023/02/06 07:18:01;;;;;;;13.07;10.07;;;;;;;;;;5134348;27;20191;-57
2023/02/06 07:20:28;;;;;;;16.75;9.40;;;;;;;;;;5134179;27;20183;-57
2023/02/06 07:22:56;;;;;;;13.48;9.25;;;;;;;;;;5134002;27;20576;-57
2023/02/06 07:25:23;;;;;;;12.18;9.75;;;;;;;;;;5133908;27;20648;-55
2023/02/06 07:27:50;;;;;;;11.50;9.25;;;;;;;;;;5134072;27;20302;-57
2023/02/06 07:30:17;;;;;;;13.32;10.18;;;;;;;;;;5134027;27;20183;-57
2023/02/06 07:32:44;;;;;;;11.27;9.25;;;;;;;;;;5133938;27;20234;-56
2023/02/06 07:35:14;;;;;;;17.83;10.13;;;;;;;;;;5133813;27;20611;-56
2023/02/06 07:37:41;;;;;;;13.10;9.93;;;;;;;;;;5133734;27;20210;-58
2023/02/06 07:40:10;;;;;;;12.88;10.15;;;;;;;;;;5133960;27;20189;-56
2023/02/06 07:42:36;;;;;;;9.13;8.23;;;;;;;;;;5133922;27;20188;-55
2023/02/06 07:45:04;;;;;;;11.75;8.30;;;;;;;;;;5133729;27;20709;-55
2023/02/06 07:47:31;;;;;;;10.77;8.75;;;;;;;;;;5133610;27;20188;-55
2023/02/06 07:49:58;;;;;;;14.00;8.40;;;;;;;;;;5133633;27;20578;-55
2023/02/06 07:52:25;;;;;;;11.90;8.45;;;;;;;;;;5133378;27;20187;-55
2023/02/06 07:54:52;;;;;;;11.23;8.90;;;;;;;;;;5133672;27;20194;-57
2023/02/06 07:57:20;;;;;;;13.25;9.57;;;;;;;;;;5133744;27;20192;-56
2023/02/06 07:59:47;;;;;;;12.50;9.18;;;;;;;;;;5133231;27;20198;-57
2023/02/06 08:02:14;;;;;;;11.57;9.70;;;;;;;;;;5133616;27;20365;-57
2023/02/06 08:04:41;;;;;;;11.82;9.02;;;;;;;;;;5133457;27;20198;-56
2023/02/06 08:07:13;;;;;;;10.65;9.10;;;;;;;;;;5133608;27;20192;-57
2023/02/06 08:09:40;;;;;;;22.25;16.90;;;;;;;;;;5133426;28;20222;-56
2023/02/06 08:12:07;;;;;;;11.95;10.18;;;;;;;;;;5115161;28;20200;-56
2023/02/06 08:14:35;;;;;;;11.40;10.18;;;;;;;;;;5112195;28;20458;-57
2023/02/06 08:17:02;;;;;;;12.20;9.48;;;;;;;;;;5112850;28;20723;-57
2023/02/06 08:19:29;;;;;;;12.32;9.38;;;;;;;;;;5112634;28;20283;-56
2023/02/06 08:21:56;;;;;;;13.48;9.85;;;;;;;;;;5112828;28;20190;-56
2023/02/06 08:24:23;;;;;;;10.23;8.75;;;;;;;;;;5119943;28;20218;-56
2023/02/06 08:26:50;;;;;;;14.32;10.15;;;;;;;;;;5133303;28;20203;-55
2023/02/06 08:29:17;;;;;;;15.10;11.38;;;;;;;;;;5119107;28;20301;-60
2023/02/06 08:31:45;;;;;;;15.02;11.70;;;;;;;;;;5112580;28;20191;-60
2023/02/06 08:34:13;;;;;;;11.73;10.10;;;;;;;;;;5112657;28;20284;-60
2023/02/06 08:36:40;;;;;;;13.13;10.30;;;;;;;;;;5112666;28;20193;-53
2023/02/06 08:39:07;;;;;;;15.05;9.90;;;;;;;;;;5112666;28;20202;-61
2023/02/06 08:41:36;;;;;;;12.93;10.18;;;;;;;;;;5112464;28;20295;-60
2023/02/06 08:44:04;;;;;;;11.07;9.10;;;;;;;;;;5112652;28;20192;-62
2023/02/06 08:46:32;;;;;;;11.38;9.80;;;;;;;;;;5112837;28;20262;-63
2023/02/06 08:49:01;;;;;;;12.52;9.07;;;;;;;;;;5112776;28;20307;-60
2023/02/06 08:51:29;;;;;;;16.20;10.30;;;;;;;;;;5114625;28;20196;-62
2023/02/06 08:53:56;;;;;;;12.60;9.50;;;;;;;;;;5133310;28;20185;-60
2023/02/06 08:56:23;;;;;;;14.73;10.75;;;;;;;;;;5133133;28;20551;-62
2023/02/06 08:58:50;;;;;;;11.30;9.60;;;;;;;;;;5133207;28;20380;-62
2023/02/06 09:01:17;;;;;;;15.07;11.10;;;;;;;;;;5132519;28;20445;-64
2023/02/06 09:03:44;;;;;;;12.10;9.52;;;;;;;;;;5133202;28;20612;-62
2023/02/06 09:06:14;;;;;;;12.68;9.65;;;;;;;;;;5133567;28;20281;-66
2023/02/06 09:08:41;;;;;;;13.02;10.40;;;;;;;;;;5132344;28;20455;-60
2023/02/06 09:11:09;;;;;;;10.52;9.10;;;;;;;;;;5133026;28;20196;-61
2023/02/06 09:13:36;;;;;;;10.15;9.15;;;;;;;;;;5132913;28;20665;-59
2023/02/06 09:16:03;;;;;;;9.20;8.10;;;;;;;;;;5133309;28;20184;-63
2023/02/06 09:18:30;;;;;;;10.52;9.23;;;;;;;;;;5133159;28;20570;-57
2023/02/06 09:21:04;;;;;;;12.25;9.05;;;;;;;;;;5133086;28;20195;-58
2023/02/06 09:23:32;;;;;;;13.88;9.77;;;;;;;;;;5133128;27;20608;-61
2023/02/06 09:25:59;;;;;;;15.60;10.23;;;;;;;;;;5136025;27;20184;-64
2023/02/06 09:28:26;;;;;;;13.25;9.48;;;;;;;;;;5131077;27;20217;-63
2023/02/06 09:30:53;;;;;;;13.82;9.90;;;;;;;;;;5115849;28;20193;-60
2023/02/06 09:33:21;;;;;;;11.73;9.75;;;;;;;;;;5115879;28;20192;-66
2023/02/06 09:35:48;;;;;;;12.55;10.07;;;;;;;;;;5119644;27;20189;-60
2023/02/06 09:38:15;;;;;;;12.65;10.57;;;;;;;;;;5115770;28;20675;-62
2023/02/06 09:40:43;;;;;;;13.95;10.23;;;;;;;;;;5115817;28;20239;-63
2023/02/06 09:43:12;;;;;;;13.18;11.40;;;;;;;;;;5116007;28;20189;-62
2023/02/06 09:45:39;;;;;;;14.90;11.55;;;;;;;;;;5115722;28;20227;-64
2023/02/06 09:48:11;;;;;;;13.48;11.57;;;;;;;;;;5117509;27;20195;-61
2023/02/06 09:50:43;;;;;;;16.05;11.10;;;;;;;;;;5128411;27;20195;-64
2023/02/06 09:53:16;;;;;;;15.48;12.07;;;;;;;;;;5136103;27;20210;-64
2023/02/06 09:55:45;;;;;;;18.88;11.40;;;;;;;;;;5136434;27;20194;-64
2023/02/06 09:58:18;;;;;;;15.00;12.40;;;;;;;;;;5136247;27;20191;-64
2023/02/06 10:00:47;;;;;;;18.45;12.52;;;;;;;;;;5136107;27;20183;-62
2023/02/06 10:03:26;;;;;;;17.95;13.32;;;;;;;;;;5135581;27;20547;-64
2023/02/06 10:05:59;;;;;;;22.98;14.70;;;;;;;;;;5136170;27;20171;-63
2023/02/06 10:08:29;;;;;;;23.77;14.57;;;;;;;;;;5115399;28;20189;-60
2023/02/06 10:11:00;;;;;;;19.45;14.68;;;;;;;;;;5115418;28;20191;-67
2023/02/06 10:13:31;;;;;;;23.77;16.45;;;;;;;;;;5115146;28;20288;-62
2023/02/06 10:16:00;;;;;;;18.98;12.95;;;;;;;;;;5115240;28;20185;-63
2023/02/06 10:18:30;;;;;;;19.63;14.43;;;;;;;;;;5115422;28;20193;-66
2023/02/06 10:20:58;;;;;;;20.30;15.20;;;;;;;;;;5115062;28;20695;-61
2023/02/06 10:23:29;;;;;;;19.15;13.80;;;;;;;;;;5115124;28;20233;-66
2023/02/06 10:26:04;;;;;;;16.85;14.23;;;;;;;;;;5114937;28;20275;-66
2023/02/06 10:28:32;;;;;;;19.90;14.00;;;;;;;;;;5114976;28;20194;-65
2023/02/06 10:31:10;;;;;;;19.20;14.45;;;;;;;;;;5115102;28;20271;-65
2023/02/06 10:33:42;;;;;;;21.27;14.55;;;;;;;;;;5115036;28;20192;-67
2023/02/06 10:36:14;;;;;;;20.08;14.02;;;;;;;;;;5114324;28;20547;-66
2023/02/06 10:38:51;;;;;;;27.98;15.57;;;;;;;;;;5114327;28;20198;-65
2023/02/06 10:41:25;;;;;;;19.02;13.73;;;;;;;;;;5114813;28;20172;-65
2023/02/06 10:43:55;;;;;;;19.65;13.75;;;;;;;;;;5114627;28;20214;-63
2023/02/06 10:46:37;;;;;;;22.08;15.15;;;;;;;;;;5114494;28;20220;-65
2023/02/06 10:49:07;;;;;;;18.23;14.10;;;;;;;;;;5112041;28;20671;-63
2023/02/06 10:51:35;;;;;;;21.90;14.90;;;;;;;;;;5114522;28;20188;-63
2023/02/06 10:54:03;;;;;;;17.83;14.65;;;;;;;;;;5114553;28;20193;-65
2023/02/06 10:56:34;;;;;;;19.23;14.45;;;;;;;;;;5114395;28;20192;-63
2023/02/06 10:59:02;;;;;;;19.15;14.02;;;;;;;;;;5116764;27;20199;-62
2023/02/06 11:01:31;;;;;;;21.27;14.40;;;;;;;;;;5134833;27;20635;-66
2023/02/06 11:04:00;;;;;;;17.83;13.63;;;;;;;;;;5134555;27;20198;-61
2023/02/06 11:06:28;;;;;;;23.90;18.50;;;;;;;;;;5133812;27;20808;-62
2023/02/06 11:08:55;;;;;;;21.30;16.95;;;;;;;;;;5134087;27;20484;-61
2023/02/06 11:11:24;;;;;;;21.27;17.23;;;;;;;;;;5133796;27;20449;-60
2023/02/06 11:13:53;;;;;;;19.42;16.48;;;;;;;;;;5133773;27;20532;-61
2023/02/06 11:16:22;;;;;;;20.85;16.92;;;;;;;;;;5133742;27;20446;-61
2023/02/06 11:18:50;;;;;;;18.98;13.73;;;;;;;;;;5134360;27;20635;-61
2023/02/06 11:21:34;;;;;;;18.50;14.00;;;;;;;;;;5134616;27;20195;-61
2023/02/06 11:24:09;;;;;;;20.08;16.35;;;;;;;;;;5133374;27;20532;-60
2023/02/06 11:26:40;;;;;;;18.77;12.55;;;;;;;;;;5134382;27;20210;-59
2023/02/06 11:29:14;;;;;;;16.63;12.75;;;;;;;;;;5134220;27;20250;-63
2023/02/06 11:31:42;;;;;;;14.40;11.50;;;;;;;;;;5134398;27;20212;-62
2023/02/06 11:34:19;;;;;;;17.73;13.43;;;;;;;;;;5134286;27;20282;-61
2023/02/06 11:36:51;;;;;;;14.00;10.77;;;;;;;;;;5134213;27;20188;-60
2023/02/06 11:39:21;;;;;;;15.27;10.88;;;;;;;;;;5134210;27;20192;-61
2023/02/06 11:41:56;;;;;;;13.05;9.27;;;;;;;;;;5134112;27;20195;-60
2023/02/06 11:44:26;;;;;;;15.60;11.43;;;;;;;;;;5134042;27;20191;-61
2023/02/06 11:46:53;;;;;;;16.52;10.23;;;;;;;;;;5133570;27;20202;-61
2023/02/06 11:49:23;;;;;;;12.70;10.10;;;;;;;;;;5133665;27;20219;-60
2023/02/06 11:51:52;;;;;;;13.27;10.00;;;;;;;;;;5134020;27;20556;-60
2023/02/06 11:54:20;;;;;;;11.68;9.77;;;;;;;;;;5133659;27;20295;-60
2023/02/06 11:56:56;;;;;;;14.05;9.35;;;;;;;;;;5133436;27;20223;-60
2023/02/06 11:59:25;;;;;;;11.55;9.13;;;;;;;;;;5133985;27;20573;-60
2023/02/06 12:01:54;;;;;;;12.63;9.85;;;;;;;;;;5133707;27;20677;-60
2023/02/06 12:04:24;;;;;;;11.45;9.32;;;;;;;;;;5133609;27;20194;-60
2023/02/06 12:06:53;;;;;;;12.63;9.70;;;;;;;;;;5133725;27;20240;-60
2023/02/06 12:09:20;;;;;;;12.93;9.52;;;;;;;;;;5133816;27;20216;-61
2023/02/06 12:11:50;;;;;;;13.88;9.07;;;;;;;;;;5133800;28;20282;-60
2023/02/06 12:14:19;;;;;;;12.18;9.27;;;;;;;;;;5133614;28;20639;-60
2023/02/06 12:16:47;;;;;;;11.45;8.90;;;;;;;;;;5133497;28;20190;-59
2023/02/06 12:19:17;;;;;;;10.07;9.05;;;;;;;;;;5133296;28;20245;-60
2023/02/06 12:21:46;;;;;;;16.05;9.45;;;;;;;;;;5133695;28;20543;-59
2023/02/06 12:24:21;;;;;;;9.68;8.25;;;;;;;;;;5133253;28;20199;-60
2023/02/06 12:26:49;;;;;;;9.98;8.98;;;;;;;;;;5133541;28;20187;-60
2023/02/06 12:29:21;;;;;;;12.38;8.95;;;;;;;;;;5133270;28;20213;-60
2023/02/06 12:31:51;;;;;;;9.25;7.63;;;;;;;;;;5133629;28;20191;-60
2023/02/06 12:34:22;;;;;;;10.13;8.15;;;;;;;;;;5133502;28;20218;-60
2023/02/06 12:36:58;;;;;;;9.35;8.05;;;;;;;;;;5133447;28;20198;-60
2023/02/06 12:39:25;;;;;;;11.80;9.00;;;;;;;;;;5133172;28;20685;-61
2023/02/06 12:42:06;;;;;;;11.18;8.18;;;;;;;;;;5133205;28;20184;-62
2023/02/06 12:44:36;;;;;;;14.57;7.43;;;;;;;;;;5133431;28;20192;-61
2023/02/06 12:47:07;;;;;;;9.98;7.60;;;;;;;;;;5132978;28;20203;-61
2023/02/06 12:49:38;;;;;;;12.40;8.60;;;;;;;;;;5133047;28;20212;-61
2023/02/06 12:52:09;;;;;;;10.40;8.40;;;;;;;;;;5132247;28;20456;-61
2023/02/06 12:54:38;;;;;;;8.90;8.00;;;;;;;;;;5133010;28;20943;-61
2023/02/06 12:57:06;;;;;;;9.00;7.40;;;;;;;;;;5133134;28;20544;-61
2023/02/06 12:59:45;;;;;;;11.73;8.82;;;;;;;;;;5134636;27;20574;-61
2023/02/06 13:02:21;;;;;;;9.88;8.00;;;;;;;;;;5137374;27;20200;-60
2023/02/06 13:04:49;;;;;;;9.65;7.45;;;;;;;;;;5137029;27;20715;-60
2023/02/06 13:07:18;;;;;;;11.65;8.65;;;;;;;;;;5137230;27;20207;-60
2023/02/06 13:09:49;;;;;;;9.07;7.03;;;;;;;;;;5137023;27;20215;-61
2023/02/06 13:12:16;;;;;;;9.15;7.55;;;;;;;;;;5136956;27;20185;-65
2023/02/06 13:14:48;;;;;;;8.90;7.00;;;;;;;;;;5136844;27;20202;-62
2023/02/06 13:17:17;;;;;;;8.70;7.22;;;;;;;;;;5136664;27;20604;-60
2023/02/06 13:19:53;;;;;;;8.50;6.30;;;;;;;;;;5137088;27;20198;-60
2023/02/06 13:22:31;;;;;;;12.38;8.13;;;;;;;;;;5136892;27;20558;-61
2023/02/06 13:24:58;;;;;;;9.88;7.90;;;;;;;;;;5136842;27;20210;-61
2023/02/06 13:27:26;;;;;;;8.80;7.60;;;;;;;;;;5136787;27;20199;-61
2023/02/06 13:29:53;;;;;;;8.15;6.85;;;;;;;;;;5137082;27;20253;-62
2023/02/06 13:32:41;;;;;;;9.35;6.88;;;;;;;;;;5136717;27;20184;-63
2023/02/06 13:35:20;;;;;;;9.63;7.22;;;;;;;;;;5136681;27;20625;-60
2023/02/06 13:37:48;;;;;;;9.48;7.22;;;;;;;;;;5136486;27;20188;-61
2023/02/06 13:40:21;;;;;;;9.93;6.22;;;;;;;;;;5136504;27;20195;-61
2023/02/06 13:42:51;;;;;;;11.98;7.13;;;;;;;;;;5136460;27;20190;-60
2023/02/06 13:45:20;;;;;;;7.95;7.03;;;;;;;;;;5136409;27;20214;-60
2023/02/06 13:48:02;;;;;;;7.50;6.07;;;;;;;;;;5136373;27;20195;-60
2023/02/06 13:50:49;;;;;;;9.40;6.75;;;;;;;;;;5132628;27;20212;-60
2023/02/06 13:53:26;;;;;;;11.30;6.50;;;;;;;;;;5136303;27;20211;-60
2023/02/06 13:56:00;;;;;;;7.80;6.20;;;;;;;;;;5136440;27;20643;-60
2023/02/06 13:58:35;;;;;;;10.43;7.25;;;;;;;;;;5136139;27;20198;-62
2023/02/06 14:01:04;;;;;;;9.32;8.13;;;;;;;;;;5135856;27;20203;-60
2023/02/06 14:03:32;;;;;;;13.95;9.15;;;;;;;;;;5136053;27;20184;-64
2023/02/06 14:06:04;;;;;;;13.68;8.23;;;;;;;;;;5136180;27;20195;-63
2023/02/06 14:08:40;;;;;;;10.35;8.13;;;;;;;;;;5126613;27;20189;-63
2023/02/06 14:14:13;;;;;;;9.98;8.18;;;;;;;;;;5115201;28;20604;-61
2023/02/06 14:16:48;;;;;;;15.20;9.40;;;;;;;;;;5114837;28;20190;-64
2023/02/06 14:19:20;;;;;;;11.68;8.80;;;;;;;;;;5114846;28;20450;-60
2023/02/06 14:21:53;;;;;;;11.15;8.90;;;;;;;;;;5114929;28;20228;-57
2023/02/06 14:24:43;;;;;;;11.18;8.73;;;;;;;;;;5115046;28;20192;-56
2023/02/06 14:27:21;;;;;;;12.73;8.75;;;;;;;;;;5094829;28;20276;-56
2023/02/06 14:29:54;;;;;;;12.93;9.70;;;;;;;;;;5114861;28;20194;-58
2023/02/06 14:32:32;;;;;;;11.00;8.38;;;;;;;;;;5114527;28;20637;-58
2023/02/06 14:35:05;;;;;;;11.57;8.07;;;;;;;;;;5114807;28;20644;-57
2023/02/06 14:37:43;;;;;;;10.35;7.88;;;;;;;;;;5114908;28;20195;-58
2023/02/06 14:40:12;;;;;;;10.32;8.75;;;;;;;;;;5114679;28;20276;-58
2023/02/06 14:42:40;;;;;;;11.80;8.30;;;;;;;;;;5114667;28;20548;-58
2023/02/06 14:45:09;;;;;;;10.65;7.85;;;;;;;;;;5114202;28;20231;-57
2023/02/06 14:47:39;;;;;;;12.30;8.43;;;;;;;;;;5114702;28;20195;-57